Time,TemperatureF,DewpointF,PressureIn,WindDirection,WindDirectionDegrees,WindSpeedMPH,WindSpeedGustMPH,Humidity,HourlyPrecipIn,Conditions,Clouds,dailyrainin,SolarRadiationWatts/m^2,SoftwareType,DateUTC
2013-06-20 00:00:00,77.8,74.0,30.06,SE,124,0.0,0.0,88,0.00,RA,,0.00,0.0,WeatherDisplay:10.37,2013-06-20 04:00:00,
2013-06-20 00:01:00,77.8,74.0,30.06,SE,124,0.0,0.0,88,0.00,RA,,0.00,0.0,WeatherDisplay:10.37,2013-06-20 04:01:00,
2013-06-20 00:06:00,77.8,74.3,30.06,SE,124,0.0,0.0,89,0.00,RA,,0.00,0.0,WeatherDisplay:10.37,2013-06-20 04:06:00,
2013-06-20 00:11:00,77.8,74.3,30.06,SE,124,0.0,0.0,89,0.00,CLR,,0.00,0.0,WeatherDisplay:10.37,2013-06-20 04:11:00,
2013-06-20 00:16:00,78.0,74.5,30.06,SE,124,0.0,0.0,89,0.00,CLR,,0.00,0.0,WeatherDisplay:10.37,2013-06-20 04:16:00,
2013-06-20 00:21:00,78.0,74.5,30.06,SE,124,0.0,0.0,89,0.00,CLR,,0.00,0.0,WeatherDisplay:10.37,2013-06-20 04:21:00,
2013-06-20 00:26:00,78.0,74.5,30.06,SE,124,0.0,0.0,89,0.00,CLR,,0.00,0.0,WeatherDisplay:10.37,2013-06-20 04:26:00,
2013-06-20 00:31:00,78.1,74.6,30.06,SE,124,0.0,0.0,89,0.00,CLR,,0.00,0.0,WeatherDisplay:10.37,2013-06-20 04:31:00,
2013-06-20 00:36:00,78.2,74.7,30.06,SE,124,0.0,0.0,89,0.00,CLR,,0.00,0.0,WeatherDisplay:10.37,2013-06-20 04:36:00,
2013-06-20 00:41:00,78.4,74.9,30.07,SE,124,0.0,0.0,89,0.00,CLR,,0.00,0.0,WeatherDisplay:10.37,2013-06-20 04:41:00,
2013-06-20 00:46:00,78.3,74.8,30.07,SE,124,0.0,0.0,89,0.00,CLR,,0.00,0.0,WeatherDisplay:10.37,2013-06-20 04:46:00,
2013-06-20 00:51:00,78.4,74.9,30.07,SE,124,0.0,0.0,89,0.00,CLR,,0.00,0.0,WeatherDisplay:10.37,2013-06-20 04:51:00,
2013-06-20 00:56:00,78.5,74.6,30.07,SE,124,0.0,0.0,88,0.00,CLR,,0.00,0.0,WeatherDisplay:10.37,2013-06-20 04:56:00,
2013-06-20 01:01:00,78.9,75.0,30.08,SE,124,0.0,0.0,88,0.00,CLR,,0.00,0.0,WeatherDisplay:10.37,2013-06-20 05:01:00,
2013-06-20 01:06:00,78.8,74.9,30.08,SE,124,0.0,0.0,88,0.00,CLR,,0.00,0.0,WeatherDisplay:10.37,2013-06-20 05:06:00,
2013-06-20 01:11:00,78.6,74.7,30.08,SE,124,0.0,0.0,88,0.00,CLR,,0.00,0.0,WeatherDisplay:10.37,2013-06-20 05:11:00,
2013-06-20 01:16:00,78.4,74.5,30.08,ESE,113,3.5,0.0,88,0.00,CLR,,0.00,0.0,WeatherDisplay:10.37,2013-06-20 05:16:00,
2013-06-20 01:21:00,78.2,74.4,30.07,ESE,123,3.5,3.5,88,0.00,CLR,,0.00,0.0,WeatherDisplay:10.37,2013-06-20 05:21:00,
2013-06-20 01:26:00,78.1,74.3,30.08,ESE,121,4.6,4.6,88,0.00,CLR,,0.00,0.0,WeatherDisplay:10.37,2013-06-20 05:26:00,
2013-06-20 01:31:00,77.9,74.4,30.08,ESE,115,5.8,5.8,89,0.00,CLR,,0.00,0.0,WeatherDisplay:10.37,2013-06-20 05:31:00,
2013-06-20 01:36:00,77.7,74.2,30.07,ESE,116,6.9,6.9,89,0.00,CLR,,0.00,0.0,WeatherDisplay:10.37,2013-06-20 05:36:00,
2013-06-20 01:41:00,77.5,74.0,30.07,SE,128,6.9,6.9,89,0.00,CLR,,0.00,0.0,WeatherDisplay:10.37,2013-06-20 05:41:00,
2013-06-20 01:46:00,77.4,74.2,30.07,ESE,120,6.0,6.0,90,0.00,CLR,,0.00,0.0,WeatherDisplay:10.37,2013-06-20 05:46:00,
2013-06-20 01:51:00,77.4,74.2,30.07,SE,126,6.9,6.9,90,0.00,CLR,,0.00,0.0,WeatherDisplay:10.37,2013-06-20 05:51:00,
2013-06-20 01:56:00,77.3,74.1,30.07,SE,126,4.6,4.6,90,0.00,CLR,,0.00,0.0,WeatherDisplay:10.37,2013-06-20 05:56:00,
2013-06-20 02:01:00,77.3,74.1,30.07,ESE,123,0.0,0.0,90,0.00,CLR,,0.00,0.0,WeatherDisplay:10.37,2013-06-20 06:01:00,
2013-06-20 02:06:00,77.3,74.1,30.06,ESE,123,0.0,0.0,90,0.00,CLR,,0.00,0.0,WeatherDisplay:10.37,2013-06-20 06:06:00,
2013-06-20 02:11:00,77.2,74.0,30.06,ESE,123,1.1,0.0,90,0.00,CLR,,0.00,0.0,WeatherDisplay:10.37,2013-06-20 06:11:00,
2013-06-20 02:16:00,77.2,74.0,30.06,ESE,123,4.6,4.6,90,0.00,CLR,,0.00,0.0,WeatherDisplay:10.37,2013-06-20 06:16:00,
2013-06-20 02:21:00,77.1,73.9,30.05,ESE,123,1.1,1.1,90,0.00,CLR,,0.00,0.0,WeatherDisplay:10.37,2013-06-20 06:21:00,
2013-06-20 02:26:00,77.1,73.9,30.05,ESE,123,0.0,0.0,90,0.00,CLR,,0.00,0.0,WeatherDisplay:10.37,2013-06-20 06:26:00,
2013-06-20 02:31:00,77.1,73.9,30.05,ESE,123,0.0,0.0,90,0.00,CLR,,0.00,0.0,WeatherDisplay:10.37,2013-06-20 06:31:00,
2013-06-20 02:36:00,77.1,73.9,30.05,ESE,123,0.0,0.0,90,0.00,CLR,,0.00,0.0,WeatherDisplay:10.37,2013-06-20 06:36:00,
2013-06-20 02:41:00,77.1,73.9,30.05,ESE,123,0.0,0.0,90,0.00,CLR,,0.00,0.0,WeatherDisplay:10.37,2013-06-20 06:41:00,
2013-06-20 02:46:00,77.1,73.9,30.05,ESE,123,0.0,0.0,90,0.00,CLR,,0.00,0.0,WeatherDisplay:10.37,2013-06-20 06:46:00,
2013-06-20 02:51:00,77.1,73.9,30.05,ESE,123,0.0,0.0,90,0.00,CLR,,0.00,0.0,WeatherDisplay:10.37,2013-06-20 06:51:00,
2013-06-20 02:56:00,77.0,73.8,30.05,ESE,123,0.0,0.0,90,0.00,CLR,,0.00,0.0,WeatherDisplay:10.37,2013-06-20 06:56:00,
2013-06-20 03:01:00,77.0,73.8,30.05,ESE,122,2.3,2.3,90,0.00,CLR,,0.00,0.0,WeatherDisplay:10.37,2013-06-20 07:01:00,
2013-06-20 03:06:00,77.0,73.8,30.05,ESE,122,0.0,0.0,90,0.00,CLR,,0.00,0.0,WeatherDisplay:10.37,2013-06-20 07:06:00,
2013-06-20 03:11:00,76.9,73.7,30.05,ESE,122,0.0,0.0,90,0.00,CLR,,0.00,0.0,WeatherDisplay:10.37,2013-06-20 07:11:00,
2013-06-20 03:16:00,76.9,73.7,30.05,ESE,122,0.0,0.0,90,0.00,CLR,,0.00,0.0,WeatherDisplay:10.37,2013-06-20 07:16:00,
2013-06-20 03:21:00,76.9,73.7,30.05,ESE,122,0.0,0.0,90,0.00,CLR,,0.00,0.0,WeatherDisplay:10.37,2013-06-20 07:21:00,
2013-06-20 03:26:00,76.9,73.7,30.05,ESE,122,0.0,0.0,90,0.00,CLR,,0.00,0.0,WeatherDisplay:10.37,2013-06-20 07:26:00,
2013-06-20 03:31:00,76.8,73.6,30.05,ESE,122,0.0,0.0,90,0.00,CLR,,0.00,0.0,WeatherDisplay:10.37,2013-06-20 07:31:00,
2013-06-20 03:36:00,76.7,73.5,30.05,ESE,122,0.0,0.0,90,0.00,CLR,,0.00,0.0,WeatherDisplay:10.37,2013-06-20 07:36:00,
2013-06-20 03:41:00,76.7,73.9,30.05,ESE,122,0.0,0.0,91,0.00,CLR,,0.00,0.0,WeatherDisplay:10.37,2013-06-20 07:41:00,
2013-06-20 03:46:00,76.6,73.8,30.05,ESE,121,0.0,0.0,91,0.00,CLR,,0.00,0.0,WeatherDisplay:10.37,2013-06-20 07:46:00,
2013-06-20 03:51:00,76.4,73.6,30.04,ESE,120,2.3,2.3,91,0.00,CLR,,0.00,0.0,WeatherDisplay:10.37,2013-06-20 07:51:00,
2013-06-20 03:56:00,76.4,73.6,30.04,ESE,118,0.0,0.0,91,0.00,CLR,,0.00,0.0,WeatherDisplay:10.37,2013-06-20 07:56:00,
2013-06-20 04:01:00,76.2,73.7,30.04,ESE,118,0.0,0.0,92,0.00,CLR,,0.00,0.0,WeatherDisplay:10.37,2013-06-20 08:01:00,
2013-06-20 04:06:00,76.1,73.6,30.04,ESE,118,0.0,0.0,92,0.00,CLR,,0.00,0.0,WeatherDisplay:10.37,2013-06-20 08:06:00,
2013-06-20 04:11:00,75.9,73.4,30.04,ESE,118,0.0,0.0,92,0.00,CLR,,0.00,0.0,WeatherDisplay:10.37,2013-06-20 08:11:00,
2013-06-20 04:16:00,75.8,73.3,30.04,ESE,115,4.6,4.6,92,0.00,CLR,,0.00,0.0,WeatherDisplay:10.37,2013-06-20 08:16:00,
2013-06-20 04:21:00,75.7,73.2,30.04,ESE,121,4.6,4.6,92,0.00,CLR,,0.00,0.0,WeatherDisplay:10.37,2013-06-20 08:21:00,
2013-06-20 04:26:00,75.6,73.1,30.03,ESE,117,4.6,4.6,92,0.00,CLR,,0.00,0.0,WeatherDisplay:10.37,2013-06-20 08:26:00,
2013-06-20 04:31:00,75.6,73.1,30.04,SE,126,5.8,5.8,92,0.00,CLR,,0.00,0.0,WeatherDisplay:10.37,2013-06-20 08:31:00,
2013-06-20 04:36:00,75.6,73.1,30.04,ESE,121,5.8,5.8,92,0.00,CLR,,0.00,0.0,WeatherDisplay:10.37,2013-06-20 08:36:00,
2013-06-20 04:41:00,75.6,73.1,30.04,ESE,122,8.1,8.1,92,0.00,CLR,,0.00,0.0,WeatherDisplay:10.37,2013-06-20 08:41:00,
2013-06-20 04:46:00,75.5,72.7,30.04,ESE,121,6.9,6.9,91,0.00,CLR,,0.00,0.0,WeatherDisplay:10.37,2013-06-20 08:46:00,
2013-06-20 04:51:00,75.6,72.8,30.04,ESE,112,7.0,7.0,91,0.00,CLR,,0.00,0.0,WeatherDisplay:10.37,2013-06-20 08:51:00,
2013-06-20 04:56:00,75.5,72.7,30.04,SE,125,8.1,8.1,91,0.00,CLR,,0.00,0.0,WeatherDisplay:10.37,2013-06-20 08:56:00,
2013-06-20 05:01:00,75.6,72.8,30.04,SE,126,6.9,6.9,91,0.00,CLR,,0.00,0.0,WeatherDisplay:10.37,2013-06-20 09:01:00,
2013-06-20 05:06:00,75.6,72.8,30.04,ESE,123,8.1,8.1,91,0.00,CLR,,0.00,0.0,WeatherDisplay:10.37,2013-06-20 09:06:00,
2013-06-20 05:11:00,75.5,72.7,30.04,ESE,123,6.9,6.9,91,0.00,CLR,,0.00,0.0,WeatherDisplay:10.37,2013-06-20 09:11:00,
2013-06-20 05:16:00,75.5,72.7,30.04,SE,126,4.6,4.6,91,0.00,CLR,,0.00,0.0,WeatherDisplay:10.37,2013-06-20 09:16:00,
2013-06-20 05:21:00,75.5,72.7,30.05,SE,126,5.0,5.0,91,0.00,CLR,,0.00,0.0,WeatherDisplay:10.37,2013-06-20 09:21:00,
2013-06-20 05:26:00,75.5,72.7,30.05,SE,127,1.1,1.1,91,0.00,CLR,,0.00,0.0,WeatherDisplay:10.37,2013-06-20 09:26:00,
2013-06-20 05:31:00,75.5,72.7,30.05,SE,124,4.6,4.6,91,0.00,CLR,,0.00,0.0,WeatherDisplay:10.37,2013-06-20 09:31:00,
2013-06-20 05:36:00,75.5,72.7,30.05,SE,127,8.1,8.1,91,0.00,CLR,,0.00,0.0,WeatherDisplay:10.37,2013-06-20 09:36:00,
2013-06-20 05:41:00,75.4,72.6,30.05,SE,125,9.2,9.2,91,0.00,CLR,,0.00,0.0,WeatherDisplay:10.37,2013-06-20 09:41:00,
2013-06-20 05:46:00,75.4,72.6,30.05,SE,124,5.8,5.8,91,0.00,CLR,,0.00,0.0,WeatherDisplay:10.37,2013-06-20 09:46:00,
2013-06-20 05:51:00,75.4,72.6,30.05,ESE,121,8.1,8.1,91,0.00,CLR,,0.00,0.0,WeatherDisplay:10.37,2013-06-20 09:51:00,
2013-06-20 05:56:00,75.4,72.6,30.05,ESE,119,9.0,9.0,91,0.00,CLR,,0.00,0.0,WeatherDisplay:10.37,2013-06-20 09:56:00,
2013-06-20 06:01:00,75.3,72.5,30.05,SE,129,6.9,6.9,91,0.00,CLR,,0.00,0.0,WeatherDisplay:10.37,2013-06-20 10:01:00,
2013-06-20 06:06:00,75.3,72.8,30.05,SE,124,5.8,5.8,92,0.00,OVC,,0.00,0.0,WeatherDisplay:10.37,2013-06-20 10:06:00,
2013-06-20 06:11:00,75.3,72.8,30.05,SE,128,3.5,3.5,92,0.00,OVC,,0.00,0.0,WeatherDisplay:10.37,2013-06-20 10:11:00,
2013-06-20 06:16:00,75.3,72.8,30.05,SE,129,4.0,4.0,92,0.00,OVC,,0.00,0.0,WeatherDisplay:10.37,2013-06-20 10:16:00,
2013-06-20 06:21:00,75.5,73.0,30.06,SE,129,4.6,4.6,92,0.00,OVC,,0.00,0.0,WeatherDisplay:10.37,2013-06-20 10:21:00,
2013-06-20 06:26:00,75.5,72.7,30.06,SE,132,6.0,6.0,91,0.00,OVC,,0.00,0.0,WeatherDisplay:10.37,2013-06-20 10:26:00,
2013-06-20 06:31:00,75.6,73.1,30.06,SE,133,1.1,1.1,92,0.00,OVC,,0.00,0.0,WeatherDisplay:10.37,2013-06-20 10:31:00,
2013-06-20 06:36:00,75.7,72.9,30.06,SE,132,3.5,3.5,91,0.00,OVC,,0.00,0.0,WeatherDisplay:10.37,2013-06-20 10:36:00,
2013-06-20 06:41:00,75.7,72.9,30.06,SE,133,4.6,4.6,91,0.00,BKN,,0.00,5.0,WeatherDisplay:10.37,2013-06-20 10:41:00,
2013-06-20 06:46:00,75.7,72.9,30.06,SE,126,4.0,4.0,91,0.00,BKN,,0.00,9.0,WeatherDisplay:10.37,2013-06-20 10:46:00,
2013-06-20 06:51:00,75.6,72.8,30.06,SE,125,6.0,6.0,91,0.00,BKN,,0.00,12.0,WeatherDisplay:10.37,2013-06-20 10:51:00,
2013-06-20 06:56:00,75.6,73.1,30.06,ESE,123,2.3,2.3,92,0.00,BKN,,0.00,18.0,WeatherDisplay:10.37,2013-06-20 10:56:00,
2013-06-20 07:01:00,75.6,73.1,30.06,ESE,123,4.6,4.6,92,0.00,BKN,,0.00,26.0,WeatherDisplay:10.37,2013-06-20 11:01:00,
2013-06-20 07:06:00,75.7,73.2,30.06,ESE,123,5.0,5.0,92,0.00,BKN,,0.00,35.0,WeatherDisplay:10.37,2013-06-20 11:06:00,
2013-06-20 07:11:00,75.7,73.2,30.06,SE,130,4.6,4.6,92,0.00,SCT,,0.00,46.0,WeatherDisplay:10.37,2013-06-20 11:11:00,
2013-06-20 07:16:00,75.9,73.4,30.07,SE,128,3.5,3.5,92,0.00,SCT,,0.00,58.0,WeatherDisplay:10.37,2013-06-20 11:16:00,
2013-06-20 07:21:00,76.0,73.5,30.07,SE,128,5.8,5.8,92,0.00,SCT,,0.00,74.0,WeatherDisplay:10.37,2013-06-20 11:21:00,
2013-06-20 07:26:00,76.3,73.5,30.07,ESE,120,8.1,8.1,91,0.00,SCT,,0.00,90.0,WeatherDisplay:10.37,2013-06-20 11:26:00,
2013-06-20 07:31:00,76.5,73.7,30.07,SE,124,8.1,8.1,91,0.00,SCT,,0.00,107.0,WeatherDisplay:10.37,2013-06-20 11:31:00,
2013-06-20 07:36:00,76.8,74.0,30.07,SE,132,8.1,8.1,91,0.00,SCT,,0.00,125.0,WeatherDisplay:10.37,2013-06-20 11:36:00,
2013-06-20 07:41:00,77.0,73.8,30.07,SE,126,5.8,5.8,90,0.00,FEW,,0.00,142.0,WeatherDisplay:10.37,2013-06-20 11:41:00,
2013-06-20 07:46:00,77.3,74.1,30.07,ESE,123,5.8,5.8,90,0.00,FEW,,0.00,156.0,WeatherDisplay:10.37,2013-06-20 11:46:00,
2013-06-20 07:51:00,77.7,74.5,30.07,SE,132,6.0,6.0,90,0.00,FEW,,0.00,174.0,WeatherDisplay:10.37,2013-06-20 11:51:00,
2013-06-20 07:56:00,78.0,74.5,30.07,SE,129,8.1,8.1,89,0.00,FEW,,0.00,192.0,WeatherDisplay:10.37,2013-06-20 11:56:00,
2013-06-20 08:01:00,78.3,74.8,30.07,SE,132,5.8,5.8,89,0.00,FEW,,0.00,209.0,WeatherDisplay:10.37,2013-06-20 12:01:00,
2013-06-20 08:06:00,78.6,74.7,30.07,SE,128,6.9,6.9,88,0.00,FEW,,0.00,225.0,WeatherDisplay:10.37,2013-06-20 12:06:00,
2013-06-20 08:11:00,79.0,75.1,30.08,SE,142,6.9,6.9,88,0.00,FEW,,0.00,244.0,WeatherDisplay:10.37,2013-06-20 12:11:00,
2013-06-20 08:16:00,79.3,75.1,30.08,SE,142,8.1,8.1,87,0.00,FEW,,0.00,262.0,WeatherDisplay:10.37,2013-06-20 12:16:00,
2013-06-20 08:21:00,79.5,74.9,30.08,SE,146,1.1,0.0,86,0.00,FEW,,0.00,278.0,WeatherDisplay:10.37,2013-06-20 12:21:00,
2013-06-20 08:26:00,80.0,75.1,30.08,SSE,150,8.1,8.1,85,0.00,FEW,,0.00,297.0,WeatherDisplay:10.37,2013-06-20 12:26:00,
2013-06-20 08:31:00,80.2,75.3,30.08,SE,135,6.9,6.9,85,0.00,FEW,,0.00,316.0,WeatherDisplay:10.37,2013-06-20 12:31:00,
2013-06-20 08:36:00,80.7,75.4,30.09,SSE,153,4.6,4.6,84,0.00,FEW,,0.00,332.0,WeatherDisplay:10.37,2013-06-20 12:36:00,
2013-06-20 08:41:00,81.1,75.8,30.09,SE,144,0.0,0.0,84,0.00,FEW,,0.00,350.0,WeatherDisplay:10.37,2013-06-20 12:41:00,
2013-06-20 08:46:00,81.6,75.9,30.09,SSW,194,3.5,3.5,83,0.00,FEW,,0.00,366.0,WeatherDisplay:10.37,2013-06-20 12:46:00,
2013-06-20 08:51:00,81.9,75.9,30.10,South,175,4.6,4.6,82,0.00,FEW,,0.00,380.0,WeatherDisplay:10.37,2013-06-20 12:51:00,
2013-06-20 08:56:00,82.0,76.3,30.10,SSE,165,0.0,0.0,83,0.00,FEW,,0.00,390.0,WeatherDisplay:10.37,2013-06-20 12:56:00,
2013-06-20 09:01:00,82.2,76.2,30.10,SE,129,6.9,6.9,82,0.00,FEW,,0.00,408.0,WeatherDisplay:10.37,2013-06-20 13:01:00,
2013-06-20 09:06:00,82.3,76.3,30.10,SSE,148,8.1,8.1,82,0.00,FEW,,0.00,429.0,WeatherDisplay:10.37,2013-06-20 13:06:00,
2013-06-20 09:11:00,82.7,76.6,30.10,SSE,148,2.0,2.0,82,0.00,FEW,,0.00,446.0,WeatherDisplay:10.37,2013-06-20 13:11:00,
2013-06-20 09:16:00,83.1,76.3,30.10,SE,144,8.1,8.1,80,0.00,FEW,,0.00,464.0,WeatherDisplay:10.37,2013-06-20 13:16:00,
2013-06-20 09:21:00,83.4,76.6,30.10,SE,144,5.8,5.8,80,0.00,FEW,,0.00,483.0,WeatherDisplay:10.37,2013-06-20 13:21:00,
2013-06-20 09:26:00,83.7,76.5,30.10,SE,146,3.5,3.5,79,0.00,FEW,,0.00,499.0,WeatherDisplay:10.37,2013-06-20 13:26:00,
2013-06-20 09:31:00,83.7,76.5,30.10,SE,136,2.0,0.0,79,0.00,FEW,,0.00,550.0,WeatherDisplay:10.37,2013-06-20 13:31:00,
2013-06-20 09:36:00,83.9,75.9,30.10,SW,217,5.8,5.8,77,0.00,CLR,,0.00,561.0,WeatherDisplay:10.37,2013-06-20 13:36:00,
2013-06-20 09:41:00,83.9,75.9,30.10,ESE,117,5.8,5.8,77,0.00,CLR,,0.00,552.0,WeatherDisplay:10.37,2013-06-20 13:41:00,
2013-06-20 09:46:00,84.4,76.4,30.10,South,190,5.8,5.8,77,0.00,FEW,,0.00,577.0,WeatherDisplay:10.37,2013-06-20 13:46:00,
2013-06-20 09:51:00,84.5,76.1,30.10,WSW,240,9.2,9.2,76,0.00,FEW,,0.00,589.0,WeatherDisplay:10.37,2013-06-20 13:51:00,
2013-06-20 09:56:00,84.2,76.6,30.10,SSW,211,9.2,9.2,78,0.00,FEW,,0.00,624.0,WeatherDisplay:10.37,2013-06-20 13:56:00,
2013-06-20 10:01:00,84.2,75.8,30.10,SSW,205,10.4,10.4,76,0.00,FEW,,0.00,649.0,WeatherDisplay:10.37,2013-06-20 14:01:00,
2013-06-20 10:06:00,83.8,75.8,30.10,SSW,209,4.6,4.6,77,0.00,FEW,,0.00,97.0,WeatherDisplay:10.37,2013-06-20 14:06:00,
2013-06-20 10:11:00,83.8,76.2,30.10,SSW,211,3.5,3.5,78,0.00,BKN,,0.00,666.0,WeatherDisplay:10.37,2013-06-20 14:11:00,
2013-06-20 10:16:00,84.0,76.0,30.10,SW,215,3.5,3.5,77,0.00,SCT,,0.00,677.0,WeatherDisplay:10.37,2013-06-20 14:16:00,
2013-06-20 10:21:00,84.5,76.5,30.10,SSW,204,0.0,0.0,77,0.00,FEW,,0.00,679.0,WeatherDisplay:10.37,2013-06-20 14:21:00,
2013-06-20 10:26:00,84.8,76.4,30.10,West,275,5.8,5.8,76,0.00,FEW,,0.00,693.0,WeatherDisplay:10.37,2013-06-20 14:26:00,
2013-06-20 10:31:00,84.5,76.1,30.10,West,265,3.5,3.5,76,0.00,FEW,,0.00,751.0,WeatherDisplay:10.37,2013-06-20 14:31:00,
2013-06-20 10:36:00,84.8,76.4,30.10,SW,220,9.2,9.2,76,0.00,FEW,,0.00,148.0,WeatherDisplay:10.37,2013-06-20 14:36:00,
2013-06-20 10:41:00,84.6,76.2,30.10,WSW,242,6.9,6.9,76,0.00,BKN,,0.00,199.0,WeatherDisplay:10.37,2013-06-20 14:41:00,
2013-06-20 10:46:00,84.5,76.1,30.10,SW,236,3.5,3.5,76,0.00,BKN,,0.00,434.0,WeatherDisplay:10.37,2013-06-20 14:46:00,
2013-06-20 10:51:00,84.4,76.0,30.10,SW,226,1.0,0.0,76,0.00,BKN,,0.00,116.0,WeatherDisplay:10.37,2013-06-20 14:51:00,
2013-06-20 10:56:00,84.5,76.1,30.10,SW,221,5.8,5.8,76,0.00,BKN,,0.00,793.0,WeatherDisplay:10.37,2013-06-20 14:56:00,
2013-06-20 11:01:00,85.0,76.2,30.10,West,277,4.6,4.6,75,0.00,SCT,,0.00,800.0,WeatherDisplay:10.37,2013-06-20 15:01:00,
2013-06-20 11:06:00,84.9,75.3,30.10,West,269,5.0,5.0,73,0.00,FEW,,0.00,796.0,WeatherDisplay:10.37,2013-06-20 15:06:00,
2013-06-20 11:11:00,85.3,75.7,30.10,WSW,244,4.6,4.6,73,0.00,FEW,,0.00,800.0,WeatherDisplay:10.37,2013-06-20 15:11:00,
2013-06-20 11:16:00,85.7,75.6,30.10,SW,236,7.0,7.0,72,0.00,FEW,,0.00,812.0,WeatherDisplay:10.37,2013-06-20 15:16:00,
2013-06-20 11:21:00,85.6,75.1,30.10,SW,215,6.9,6.9,71,0.00,FEW,,0.00,826.0,WeatherDisplay:10.37,2013-06-20 15:21:00,
2013-06-20 11:26:00,85.9,75.4,30.10,WSW,238,8.1,8.1,71,0.00,FEW,,0.00,840.0,WeatherDisplay:10.37,2013-06-20 15:26:00,
2013-06-20 11:31:00,86.2,76.5,30.10,WNW,288,8.1,8.1,73,0.00,FEW,,0.00,844.0,WeatherDisplay:10.37,2013-06-20 15:31:00,
2013-06-20 11:36:00,85.8,76.1,30.11,WSW,249,9.0,9.0,73,0.00,FEW,,0.00,858.0,WeatherDisplay:10.37,2013-06-20 15:36:00,
2013-06-20 11:41:00,85.6,75.9,30.11,West,261,9.2,9.2,73,0.00,FEW,,0.00,865.0,WeatherDisplay:10.37,2013-06-20 15:41:00,
2013-06-20 11:46:00,85.6,76.8,30.11,WSW,248,9.2,9.2,75,0.00,FEW,,0.00,870.0,WeatherDisplay:10.37,2013-06-20 15:46:00,
2013-06-20 11:51:00,85.6,76.4,30.11,SW,227,12.7,12.7,74,0.00,FEW,,0.00,881.0,WeatherDisplay:10.37,2013-06-20 15:51:00,
2013-06-20 11:56:00,85.2,76.4,30.11,West,269,8.1,8.1,75,0.00,FEW,,0.00,884.0,WeatherDisplay:10.37,2013-06-20 15:56:00,
2013-06-20 12:01:00,85.6,76.8,30.11,WSW,255,10.4,10.4,75,0.00,FEW,,0.00,896.0,WeatherDisplay:10.37,2013-06-20 16:01:00,
2013-06-20 12:06:00,85.9,76.6,30.11,West,271,11.5,11.5,74,0.00,FEW,,0.00,907.0,WeatherDisplay:10.37,2013-06-20 16:06:00,
2013-06-20 12:11:00,86.2,76.9,30.11,West,265,11.5,11.5,74,0.00,FEW,,0.00,916.0,WeatherDisplay:10.37,2013-06-20 16:11:00,
2013-06-20 12:16:00,86.1,76.4,30.11,West,267,12.7,12.7,73,0.00,FEW,,0.00,926.0,WeatherDisplay:10.37,2013-06-20 16:16:00,
2013-06-20 12:21:00,85.8,76.5,30.11,WSW,257,9.2,9.2,74,0.00,FEW,,0.00,933.0,WeatherDisplay:10.37,2013-06-20 16:21:00,
2013-06-20 12:26:00,85.7,76.5,30.11,WSW,249,7.0,7.0,74,0.00,FEW,,0.00,905.0,WeatherDisplay:10.37,2013-06-20 16:26:00,
2013-06-20 12:31:00,85.5,76.3,30.11,West,267,12.7,12.7,74,0.00,FEW,,0.00,921.0,WeatherDisplay:10.37,2013-06-20 16:31:00,
2013-06-20 12:36:00,85.4,76.2,30.11,SW,225,13.8,13.8,74,0.00,FEW,,0.00,979.0,WeatherDisplay:10.37,2013-06-20 16:36:00,
2013-06-20 12:41:00,85.4,76.6,30.11,WSW,254,9.2,9.2,75,0.00,FEW,,0.00,998.0,WeatherDisplay:10.37,2013-06-20 16:41:00,
2013-06-20 12:46:00,85.5,76.7,30.11,West,279,13.8,13.8,75,0.00,FEW,,0.00,1023.0,WeatherDisplay:10.37,2013-06-20 16:46:00,
2013-06-20 12:51:00,85.7,76.9,30.11,WNW,290,13.8,13.8,75,0.00,FEW,,0.00,1062.0,WeatherDisplay:10.37,2013-06-20 16:51:00,
2013-06-20 12:56:00,85.7,77.3,30.11,West,262,8.1,8.1,76,0.00,FEW,,0.00,1088.0,WeatherDisplay:10.37,2013-06-20 16:56:00,
2013-06-20 13:01:00,85.7,77.3,30.11,WSW,250,13.8,13.8,76,0.00,FEW,,0.00,359.0,WeatherDisplay:10.37,2013-06-20 17:01:00,
2013-06-20 13:06:00,85.4,77.0,30.11,WSW,239,15.0,15.0,76,0.00,SCT,,0.00,480.0,WeatherDisplay:10.37,2013-06-20 17:06:00,
2013-06-20 13:11:00,85.0,77.4,30.10,WSW,248,15.0,15.0,78,0.00,SCT,,0.00,914.0,WeatherDisplay:10.37,2013-06-20 17:11:00,
2013-06-20 13:16:00,85.3,77.3,30.11,West,262,9.2,9.2,77,0.00,SCT,,0.00,722.0,WeatherDisplay:10.37,2013-06-20 17:16:00,
2013-06-20 13:21:00,85.6,77.2,30.11,West,276,8.1,8.1,76,0.00,SCT,,0.00,454.0,WeatherDisplay:10.37,2013-06-20 17:21:00,
2013-06-20 13:26:00,85.6,76.8,30.11,West,259,9.2,9.2,75,0.00,BKN,,0.00,786.0,WeatherDisplay:10.37,2013-06-20 17:26:00,
2013-06-20 13:31:00,86.4,77.5,30.11,SW,234,8.1,8.1,75,0.00,BKN,,0.00,366.0,WeatherDisplay:10.37,2013-06-20 17:31:00,
2013-06-20 13:36:00,87.0,77.3,30.11,West,279,10.4,10.4,73,0.00,BKN,,0.00,466.0,WeatherDisplay:10.37,2013-06-20 17:36:00,
2013-06-20 13:41:00,87.2,77.5,30.11,West,267,8.1,8.1,73,0.00,SCT,,0.00,905.0,WeatherDisplay:10.37,2013-06-20 17:41:00,
2013-06-20 13:46:00,86.5,77.2,30.10,WSW,247,11.5,11.5,74,0.00,FEW,,0.00,798.0,WeatherDisplay:10.37,2013-06-20 17:46:00,
2013-06-20 13:51:00,86.0,76.7,30.10,WSW,244,10.4,10.4,74,0.00,SCT,,0.00,385.0,WeatherDisplay:10.37,2013-06-20 17:51:00,
2013-06-20 13:56:00,85.6,76.8,30.11,WSW,246,9.2,9.2,75,0.00,BKN,,0.00,369.0,WeatherDisplay:10.37,2013-06-20 17:56:00,
2013-06-20 14:01:00,85.9,76.6,30.11,West,275,6.9,6.9,74,0.00,BKN,,0.00,367.0,WeatherDisplay:10.37,2013-06-20 18:01:00,
2013-06-20 14:06:00,85.8,76.5,30.11,West,267,10.4,10.4,74,0.00,BKN,,0.00,452.0,WeatherDisplay:10.37,2013-06-20 18:06:00,
2013-06-20 14:11:00,85.7,75.6,30.10,SW,236,8.1,8.1,72,0.00,BKN,,0.00,652.0,WeatherDisplay:10.37,2013-06-20 18:11:00,
2013-06-20 14:16:00,86.0,76.3,30.10,SW,234,7.0,7.0,73,0.00,BKN,,0.00,378.0,WeatherDisplay:10.37,2013-06-20 18:16:00,
2013-06-20 14:21:00,86.3,76.6,30.10,WSW,245,8.1,8.1,73,0.00,BKN,,0.00,654.0,WeatherDisplay:10.37,2013-06-20 18:21:00,
2013-06-20 14:26:00,86.2,76.5,30.09,SW,231,10.4,10.4,73,0.00,SCT,,0.00,645.0,WeatherDisplay:10.37,2013-06-20 18:26:00,
2013-06-20 14:31:00,85.7,76.0,30.09,WSW,254,6.9,6.9,73,0.00,SCT,,0.00,501.0,WeatherDisplay:10.37,2013-06-20 18:31:00,
2013-06-20 14:36:00,86.0,76.3,30.09,WSW,242,9.2,9.2,73,0.00,SCT,,0.00,846.0,WeatherDisplay:10.37,2013-06-20 18:36:00,
2013-06-20 14:41:00,86.1,76.0,30.09,SW,234,11.5,11.5,72,0.00,SCT,,0.00,986.0,WeatherDisplay:10.37,2013-06-20 18:41:00,
2013-06-20 14:46:00,86.2,76.1,30.09,WSW,240,11.5,11.5,72,0.00,SCT,,0.00,621.0,WeatherDisplay:10.37,2013-06-20 18:46:00,
2013-06-20 14:51:00,86.0,75.9,30.08,WSW,238,12.7,12.7,72,0.00,SCT,,0.00,933.0,WeatherDisplay:10.37,2013-06-20 18:51:00,
2013-06-20 14:56:00,86.2,76.1,30.07,West,268,8.1,8.1,72,0.00,FEW,,0.00,705.0,WeatherDisplay:10.37,2013-06-20 18:56:00,
2013-06-20 15:01:00,85.7,75.6,30.07,WSW,238,6.0,6.0,72,0.00,FEW,,0.00,942.0,WeatherDisplay:10.37,2013-06-20 19:01:00,
2013-06-20 15:06:00,86.3,75.8,30.07,WSW,239,11.5,11.5,71,0.00,FEW,,0.00,981.0,WeatherDisplay:10.37,2013-06-20 19:06:00,
2013-06-20 15:11:00,86.1,76.0,30.07,WSW,240,12.7,12.7,72,0.00,FEW,,0.00,965.0,WeatherDisplay:10.37,2013-06-20 19:11:00,
2013-06-20 15:16:00,86.1,76.0,30.07,SW,235,9.2,9.2,72,0.00,FEW,,0.00,930.0,WeatherDisplay:10.37,2013-06-20 19:16:00,
2013-06-20 15:21:00,86.3,76.2,30.07,West,269,10.4,10.4,72,0.00,FEW,,0.00,895.0,WeatherDisplay:10.37,2013-06-20 19:21:00,
2013-06-20 15:26:00,86.4,76.3,30.07,West,261,10.4,10.4,72,0.00,FEW,,0.00,881.0,WeatherDisplay:10.37,2013-06-20 19:26:00,
2013-06-20 15:31:00,86.1,75.6,30.07,West,277,6.0,6.0,71,0.00,FEW,,0.00,911.0,WeatherDisplay:10.37,2013-06-20 19:31:00,
2013-06-20 15:36:00,86.6,76.5,30.07,SW,231,8.1,8.1,72,0.00,FEW,,0.00,995.0,WeatherDisplay:10.37,2013-06-20 19:36:00,
2013-06-20 15:41:00,86.8,76.3,30.07,SSW,213,8.1,8.1,71,0.00,CLR,,0.00,1009.0,WeatherDisplay:10.37,2013-06-20 19:41:00,
2013-06-20 15:46:00,87.0,76.5,30.07,WSW,238,8.1,8.1,71,0.00,CLR,,0.00,960.0,WeatherDisplay:10.37,2013-06-20 19:46:00,
2013-06-20 15:51:00,86.9,75.1,30.07,WSW,252,10.4,10.4,68,0.00,CLR,,0.00,946.0,WeatherDisplay:10.37,2013-06-20 19:51:00,
2013-06-20 15:56:00,86.4,75.5,30.07,WSW,239,10.4,10.4,70,0.00,CLR,,0.00,893.0,WeatherDisplay:10.37,2013-06-20 19:56:00,
2013-06-20 16:01:00,86.3,76.2,30.07,WSW,244,10.4,10.4,72,0.00,CLR,,0.00,872.0,WeatherDisplay:10.37,2013-06-20 20:01:00,
2013-06-20 16:06:00,87.0,76.0,30.07,SW,229,10.4,10.4,70,0.00,CLR,,0.00,861.0,WeatherDisplay:10.37,2013-06-20 20:06:00,
2013-06-20 16:11:00,86.7,75.7,30.06,West,263,12.7,12.7,70,0.00,CLR,,0.00,552.0,WeatherDisplay:10.37,2013-06-20 20:11:00,
2013-06-20 16:16:00,86.6,76.1,30.06,West,260,10.4,10.4,71,0.00,FEW,,0.00,578.0,WeatherDisplay:10.37,2013-06-20 20:16:00,
2013-06-20 16:21:00,86.6,76.1,30.06,West,261,9.2,9.2,71,0.00,SCT,,0.00,817.0,WeatherDisplay:10.37,2013-06-20 20:21:00,
2013-06-20 16:26:00,86.8,75.8,30.07,SW,229,6.9,6.9,70,0.00,FEW,,0.00,835.0,WeatherDisplay:10.37,2013-06-20 20:26:00,
2013-06-20 16:31:00,87.2,75.8,30.07,SSW,198,3.5,3.5,69,0.00,CLR,,0.00,784.0,WeatherDisplay:10.37,2013-06-20 20:31:00,
2013-06-20 16:36:00,87.5,75.6,30.06,SW,234,10.4,10.4,68,0.00,CLR,,0.00,830.0,WeatherDisplay:10.37,2013-06-20 20:36:00,
2013-06-20 16:41:00,87.6,75.7,30.06,SSW,200,8.1,8.1,68,0.00,CLR,,0.00,765.0,WeatherDisplay:10.37,2013-06-20 20:41:00,
2013-06-20 16:46:00,87.2,75.3,30.06,WSW,240,10.4,10.4,68,0.00,CLR,,0.00,744.0,WeatherDisplay:10.37,2013-06-20 20:46:00,
2013-06-20 16:51:00,86.7,77.0,30.06,WSW,257,10.4,10.4,73,0.00,FEW,,0.00,763.0,WeatherDisplay:10.37,2013-06-20 20:51:00,
2013-06-20 16:56:00,86.2,75.7,30.06,WSW,251,8.1,8.1,71,0.00,SCT,,0.00,244.0,WeatherDisplay:10.37,2013-06-20 20:56:00,
2013-06-20 17:01:00,86.5,76.8,30.06,WSW,252,11.5,11.5,73,0.00,CLR,,0.00,768.0,WeatherDisplay:10.37,2013-06-20 21:01:00,
2013-06-20 17:06:00,86.6,76.9,30.06,West,265,9.2,9.2,73,0.00,CLR,,0.00,686.0,WeatherDisplay:10.37,2013-06-20 21:06:00,
2013-06-20 17:11:00,85.9,77.1,30.06,WNW,288,11.5,11.5,75,0.00,CLR,,0.00,722.0,WeatherDisplay:10.37,2013-06-20 21:11:00,
2013-06-20 17:16:00,85.6,76.8,30.06,SW,235,10.4,10.4,75,0.00,CLR,,0.00,722.0,WeatherDisplay:10.37,2013-06-20 21:16:00,
2013-06-20 17:21:00,85.8,77.0,30.06,West,270,10.4,10.4,75,0.00,CLR,,0.00,684.0,WeatherDisplay:10.37,2013-06-20 21:21:00,
2013-06-20 17:26:00,86.0,76.7,30.06,WNW,283,5.8,5.8,74,0.00,CLR,,0.00,722.0,WeatherDisplay:10.37,2013-06-20 21:26:00,
2013-06-20 17:31:00,86.9,75.9,30.06,West,269,9.2,9.2,70,0.00,CLR,,0.00,715.0,WeatherDisplay:10.37,2013-06-20 21:31:00,
2013-06-20 17:36:00,87.1,77.0,30.06,SW,218,6.0,6.0,72,0.00,CLR,,0.00,318.0,WeatherDisplay:10.37,2013-06-20 21:36:00,
2013-06-20 17:41:00,87.3,76.7,30.06,West,272,8.1,8.1,71,0.00,CLR,,0.00,684.0,WeatherDisplay:10.37,2013-06-20 21:41:00,
2013-06-20 17:46:00,87.7,77.1,30.06,WNW,300,5.8,5.8,71,0.00,CLR,,0.00,621.0,WeatherDisplay:10.37,2013-06-20 21:46:00,
2013-06-20 17:51:00,86.6,76.9,30.06,West,261,4.6,4.6,73,0.00,CLR,,0.00,577.0,WeatherDisplay:10.37,2013-06-20 21:51:00,
2013-06-20 17:56:00,86.5,76.8,30.06,West,270,8.1,8.1,73,0.00,CLR,,0.00,596.0,WeatherDisplay:10.37,2013-06-20 21:56:00,
2013-06-20 18:01:00,86.4,77.1,30.06,NW,307,8.1,8.1,74,0.00,CLR,,0.00,613.0,WeatherDisplay:10.37,2013-06-20 22:01:00,
2013-06-20 18:06:00,86.4,76.7,30.06,West,276,9.2,9.2,73,0.00,CLR,,0.00,577.0,WeatherDisplay:10.37,2013-06-20 22:06:00,
2013-06-20 18:11:00,86.5,76.8,30.06,West,261,8.1,8.1,73,0.00,CLR,,0.00,559.0,WeatherDisplay:10.37,2013-06-20 22:11:00,
2013-06-20 18:16:00,86.1,76.4,30.06,West,279,9.2,9.2,73,0.00,CLR,,0.00,547.0,WeatherDisplay:10.37,2013-06-20 22:16:00,
2013-06-20 18:21:00,85.7,76.9,30.06,West,279,5.8,5.8,75,0.00,CLR,,0.00,531.0,WeatherDisplay:10.37,2013-06-20 22:21:00,
2013-06-20 18:26:00,85.9,76.6,30.06,West,270,9.2,9.2,74,0.00,CLR,,0.00,510.0,WeatherDisplay:10.37,2013-06-20 22:26:00,
2013-06-20 18:31:00,86.4,76.7,30.06,West,279,3.5,3.5,73,0.00,CLR,,0.00,501.0,WeatherDisplay:10.37,2013-06-20 22:31:00,
2013-06-20 18:36:00,86.7,76.6,30.06,West,267,9.2,9.2,72,0.00,CLR,,0.00,494.0,WeatherDisplay:10.37,2013-06-20 22:36:00,
2013-06-20 18:41:00,86.6,76.5,30.06,SW,236,8.1,8.1,72,0.00,CLR,,0.00,473.0,WeatherDisplay:10.37,2013-06-20 22:41:00,
2013-06-20 18:46:00,86.3,76.2,30.06,WSW,237,9.2,9.2,72,0.00,CLR,,0.00,468.0,WeatherDisplay:10.37,2013-06-20 22:46:00,
2013-06-20 18:51:00,86.0,76.3,30.07,WSW,237,6.9,6.9,73,0.00,CLR,,0.00,443.0,WeatherDisplay:10.37,2013-06-20 22:51:00,
2013-06-20 18:56:00,86.5,76.0,30.07,WSW,244,0.0,0.0,71,0.00,CLR,,0.00,408.0,WeatherDisplay:10.37,2013-06-20 22:56:00,
2013-06-20 19:01:00,87.0,75.6,30.07,NW,306,2.3,2.3,69,0.00,CLR,,0.00,404.0,WeatherDisplay:10.37,2013-06-20 23:01:00,
2013-06-20 19:06:00,87.2,75.3,30.08,ESE,117,0.0,0.0,68,0.00,CLR,,0.00,394.0,WeatherDisplay:10.37,2013-06-20 23:06:00,
2013-06-20 19:11:00,86.9,75.5,30.08,SW,221,8.1,8.1,69,0.00,CLR,,0.00,381.0,WeatherDisplay:10.37,2013-06-20 23:11:00,
2013-06-20 19:16:00,86.7,75.7,30.08,NW,323,3.5,3.5,70,0.00,CLR,,0.00,364.0,WeatherDisplay:10.37,2013-06-20 23:16:00,
2013-06-20 19:21:00,85.4,74.1,30.08,NW,317,6.9,6.9,69,0.00,CLR,,0.00,325.0,WeatherDisplay:10.37,2013-06-20 23:21:00,
2013-06-20 19:26:00,84.1,71.1,30.08,NE,53,11.5,11.5,65,0.00,CLR,,0.00,288.0,WeatherDisplay:10.37,2013-06-20 23:26:00,
2013-06-20 19:31:00,82.0,70.4,30.08,North,5,16.0,16.0,68,0.00,CLR,,0.00,221.0,WeatherDisplay:10.37,2013-06-20 23:31:00,
2013-06-20 19:36:00,80.4,70.5,30.08,North,360,16.1,16.1,72,0.00,CLR,,0.00,206.0,WeatherDisplay:10.37,2013-06-20 23:36:00,
2013-06-20 19:41:00,80.1,71.5,30.09,NE,46,6.9,6.9,75,0.00,CLR,,0.00,174.0,WeatherDisplay:10.37,2013-06-20 23:41:00,
2013-06-20 19:46:00,79.4,71.9,30.09,NE,37,10.4,10.4,78,0.00,CLR,,0.00,148.0,WeatherDisplay:10.37,2013-06-20 23:46:00,
2013-06-20 19:51:00,79.0,72.7,30.09,ENE,76,5.8,5.8,81,0.00,CLR,,0.00,132.0,WeatherDisplay:10.37,2013-06-20 23:51:00,
2013-06-20 19:56:00,79.1,73.1,30.09,NNW,343,8.1,8.1,82,0.00,CLR,,0.00,93.0,WeatherDisplay:10.37,2013-06-20 23:56:00,
2013-06-20 20:01:00,78.6,73.4,30.09,NE,55,10.4,10.4,84,0.01,RA,,0.01,74.0,WeatherDisplay:10.37,2013-06-21 00:01:00,
2013-06-20 20:06:00,78.6,73.7,30.09,NE,50,6.9,6.9,85,0.01,RA,,0.01,54.0,WeatherDisplay:10.37,2013-06-21 00:06:00,
2013-06-20 20:11:00,78.7,74.2,30.09,East,82,2.3,2.3,86,0.01,CLR,,0.01,42.0,WeatherDisplay:10.37,2013-06-21 00:11:00,
2013-06-20 20:16:00,78.7,74.2,30.09,East,82,3.5,3.5,86,0.01,CLR,,0.01,32.0,WeatherDisplay:10.37,2013-06-21 00:16:00,
2013-06-20 20:21:00,78.9,74.4,30.09,East,80,3.5,3.5,86,0.01,CLR,,0.01,23.0,WeatherDisplay:10.37,2013-06-21 00:21:00,
2013-06-20 20:26:00,79.2,74.6,30.09,East,92,5.8,5.8,86,0.01,OVC,,0.01,16.0,WeatherDisplay:10.37,2013-06-21 00:26:00,
2013-06-20 20:31:00,79.1,74.5,30.09,SE,132,4.0,4.0,86,0.01,OVC,,0.01,9.0,WeatherDisplay:10.37,2013-06-21 00:31:00,
2013-06-20 20:36:00,79.1,74.5,30.09,East,85,6.9,6.9,86,0.01,OVC,,0.01,0.0,WeatherDisplay:10.37,2013-06-21 00:36:00,
2013-06-20 20:41:00,79.2,74.6,30.09,ESE,115,3.5,3.5,86,0.01,OVC,,0.01,0.0,WeatherDisplay:10.37,2013-06-21 00:41:00,
2013-06-20 20:46:00,79.3,74.7,30.09,ESE,106,5.8,5.8,86,0.01,OVC,,0.01,0.0,WeatherDisplay:10.37,2013-06-21 00:46:00,
2013-06-20 20:51:00,79.3,74.7,30.09,ESE,120,5.8,5.8,86,0.01,OVC,,0.01,0.0,WeatherDisplay:10.37,2013-06-21 00:51:00,
2013-06-20 20:56:00,79.2,74.6,30.09,SE,130,4.6,4.6,86,0.01,OVC,,0.01,0.0,WeatherDisplay:10.37,2013-06-21 00:56:00,
2013-06-20 21:01:00,79.1,74.2,30.09,ESE,110,4.6,4.6,85,0.00,CLR,,0.01,0.0,WeatherDisplay:10.37,2013-06-21 01:01:00,
2013-06-20 21:06:00,79.2,74.3,30.09,SE,124,7.0,7.0,85,0.00,CLR,,0.01,0.0,WeatherDisplay:10.37,2013-06-21 01:06:00,
2013-06-20 21:11:00,79.4,74.5,30.09,East,86,3.0,3.0,85,0.00,CLR,,0.01,0.0,WeatherDisplay:10.37,2013-06-21 01:11:00,
2013-06-20 21:16:00,79.2,74.3,30.09,ENE,77,2.3,2.3,85,0.00,CLR,,0.01,0.0,WeatherDisplay:10.37,2013-06-21 01:16:00,
2013-06-20 21:21:00,79.0,74.5,30.10,ENE,69,3.5,3.5,86,0.00,CLR,,0.01,0.0,WeatherDisplay:10.37,2013-06-21 01:21:00,
2013-06-20 21:26:00,78.8,74.6,30.10,East,86,2.3,2.3,87,0.00,CLR,,0.01,0.0,WeatherDisplay:10.37,2013-06-21 01:26:00,
2013-06-20 21:31:00,78.6,74.4,30.09,ENE,76,3.5,3.5,87,0.00,CLR,,0.01,0.0,WeatherDisplay:10.37,2013-06-21 01:31:00,
2013-06-20 21:36:00,78.4,74.2,30.09,East,89,2.3,2.3,87,0.00,CLR,,0.01,0.0,WeatherDisplay:10.37,2013-06-21 01:36:00,
2013-06-20 21:41:00,78.4,74.5,30.09,East,92,0.0,0.0,88,0.00,CLR,,0.01,0.0,WeatherDisplay:10.37,2013-06-21 01:41:00,
2013-06-20 21:46:00,78.5,74.6,30.09,East,92,0.0,0.0,88,0.00,CLR,,0.01,0.0,WeatherDisplay:10.37,2013-06-21 01:46:00,
2013-06-20 21:51:00,78.4,74.2,30.09,East,92,0.0,0.0,87,0.00,CLR,,0.01,0.0,WeatherDisplay:10.37,2013-06-21 01:51:00,
2013-06-20 21:56:00,78.4,74.2,30.09,East,92,0.0,0.0,87,0.00,CLR,,0.01,0.0,WeatherDisplay:10.37,2013-06-21 01:56:00,
2013-06-20 22:01:00,78.3,74.1,30.09,East,92,0.0,0.0,87,0.00,CLR,,0.01,0.0,WeatherDisplay:10.37,2013-06-21 02:01:00,
2013-06-20 22:06:00,78.2,74.4,30.09,ESE,121,1.1,1.1,88,0.00,CLR,,0.01,0.0,WeatherDisplay:10.37,2013-06-21 02:06:00,
2013-06-20 22:11:00,78.3,74.5,30.09,ESE,121,0.0,0.0,88,0.00,CLR,,0.01,0.0,WeatherDisplay:10.37,2013-06-21 02:11:00,
2013-06-20 22:16:00,78.4,74.5,30.09,ESE,121,0.0,0.0,88,0.00,CLR,,0.01,0.0,WeatherDisplay:10.37,2013-06-21 02:16:00,
2013-06-20 22:21:00,78.3,74.5,30.09,ESE,121,0.0,0.0,88,0.00,CLR,,0.01,0.0,WeatherDisplay:10.37,2013-06-21 02:21:00,
2013-06-20 22:26:00,78.4,74.5,30.09,ESE,121,0.0,0.0,88,0.00,CLR,,0.01,0.0,WeatherDisplay:10.37,2013-06-21 02:26:00,
2013-06-20 22:31:00,78.3,74.5,30.09,NE,55,1.1,1.1,88,0.00,CLR,,0.01,0.0,WeatherDisplay:10.37,2013-06-21 02:31:00,
2013-06-20 22:36:00,78.1,74.6,30.09,ENE,58,0.0,0.0,89,0.00,CLR,,0.01,0.0,WeatherDisplay:10.37,2013-06-21 02:36:00,
2013-06-20 22:41:00,78.1,74.6,30.09,East,101,4.6,4.6,89,0.00,CLR,,0.01,0.0,WeatherDisplay:10.37,2013-06-21 02:41:00,
2013-06-20 22:46:00,78.1,74.6,30.09,ESE,103,0.0,0.0,89,0.00,CLR,,0.01,0.0,WeatherDisplay:10.37,2013-06-21 02:46:00,
2013-06-20 22:51:00,78.1,74.6,30.10,ESE,110,0.0,0.0,89,0.00,CLR,,0.01,0.0,WeatherDisplay:10.37,2013-06-21 02:51:00,
2013-06-20 22:56:00,77.8,74.3,30.10,ENE,76,2.3,2.3,89,0.00,CLR,,0.01,0.0,WeatherDisplay:10.37,2013-06-21 02:56:00,
2013-06-20 23:01:00,77.7,74.5,30.10,ENE,76,0.0,0.0,90,0.00,CLR,,0.01,0.0,WeatherDisplay:10.37,2013-06-21 03:01:00,
2013-06-20 23:06:00,77.3,73.8,30.10,ESE,103,6.9,6.9,89,0.00,CLR,,0.01,0.0,WeatherDisplay:10.37,2013-06-21 03:06:00,
2013-06-20 23:11:00,77.0,73.5,30.10,East,99,4.6,4.6,89,0.00,CLR,,0.01,0.0,WeatherDisplay:10.37,2013-06-21 03:11:00,
2013-06-20 23:16:00,76.9,73.4,30.10,ESE,121,8.1,8.1,89,0.00,CLR,,0.01,0.0,WeatherDisplay:10.37,2013-06-21 03:16:00,
2013-06-20 23:21:00,76.7,73.2,30.10,ESE,119,8.1,8.1,89,0.00,CLR,,0.01,0.0,WeatherDisplay:10.37,2013-06-21 03:21:00,
2013-06-20 23:26:00,76.6,73.1,30.11,ESE,108,6.9,6.9,89,0.00,CLR,,0.01,0.0,WeatherDisplay:10.37,2013-06-21 03:26:00,
2013-06-20 23:31:00,76.4,72.9,30.11,ESE,105,3.5,3.5,89,0.00,CLR,,0.01,0.0,WeatherDisplay:10.37,2013-06-21 03:31:00,
2013-06-20 23:36:00,76.4,72.6,30.11,SE,129,0.0,0.0,88,0.00,CLR,,0.01,0.0,WeatherDisplay:10.37,2013-06-21 03:36:00,
2013-06-20 23:41:00,76.4,72.6,30.11,SE,127,8.1,8.1,88,0.00,CLR,,0.01,0.0,WeatherDisplay:10.37,2013-06-21 03:41:00,
2013-06-20 23:46:00,76.2,72.0,30.11,ESE,112,8.1,8.1,87,0.00,CLR,,0.01,0.0,WeatherDisplay:10.37,2013-06-21 03:46:00,
2013-06-20 23:51:00,76.1,71.9,30.11,SE,144,11.5,11.5,87,0.00,CLR,,0.01,0.0,WeatherDisplay:10.37,2013-06-21 03:51:00,
2013-06-20 23:56:00,76.0,71.8,30.11,SSE,150,13.0,13.0,87,0.00,CLR,,0.01,0.0,WeatherDisplay:10.37,2013-06-21 03:56:00,